sensor_id;sensor_type;location;lat;lon;timestamp;temperature;humidity
70079;DHT22;57451;52.496;13.456;2022-09-17T00:00:22;12.50;76.70
70079;DHT22;57451;52.496;13.456;2022-09-17T00:02:49;12.50;76.40
70079;DHT22;57451;52.496;13.456;2022-09-17T00:05:21;12.50;76.60
70079;DHT22;57451;52.496;13.456;2022-09-17T00:07:48;12.50;76.60
70079;DHT22;57451;52.496;13.456;2022-09-17T00:10:15;12.50;76.50
70079;DHT22;57451;52.496;13.456;2022-09-17T00:12:41;12.50;76.70
70079;DHT22;57451;52.496;13.456;2022-09-17T00:15:08;12.50;76.50
70079;DHT22;57451;52.496;13.456;2022-09-17T00:17:34;12.60;76.70
70079;DHT22;57451;52.496;13.456;2022-09-17T00:20:01;12.60;76.40
70079;DHT22;57451;52.496;13.456;2022-09-17T00:22:27;12.50;76.90
70079;DHT22;57451;52.496;13.456;2022-09-17T00:24:55;12.50;76.90
70079;DHT22;57451;52.496;13.456;2022-09-17T00:27:21;12.60;76.90
70079;DHT22;57451;52.496;13.456;2022-09-17T00:29:47;12.60;76.90
70079;DHT22;57451;52.496;13.456;2022-09-17T00:32:14;12.50;76.90
70079;DHT22;57451;52.496;13.456;2022-09-17T00:34:41;12.60;76.70
70079;DHT22;57451;52.496;13.456;2022-09-17T00:37:08;12.60;76.60
70079;DHT22;57451;52.496;13.456;2022-09-17T00:39:34;12.60;76.60
70079;DHT22;57451;52.496;13.456;2022-09-17T00:42:01;12.60;76.60
70079;DHT22;57451;52.496;13.456;2022-09-17T00:44:46;12.70;76.30
70079;DHT22;57451;52.496;13.456;2022-09-17T00:47:19;12.70;76.40
70079;DHT22;57451;52.496;13.456;2022-09-17T00:49:46;12.70;76.70
70079;DHT22;57451;52.496;13.456;2022-09-17T00:52:17;12.70;76.80
70079;DHT22;57451;52.496;13.456;2022-09-17T00:54:50;12.70;76.90
70079;DHT22;57451;52.496;13.456;2022-09-17T00:57:19;12.70;76.80
70079;DHT22;57451;52.496;13.456;2022-09-17T00:59:45;12.70;76.60
70079;DHT22;57451;52.496;13.456;2022-09-17T01:02:12;12.70;76.90
70079;DHT22;57451;52.496;13.456;2022-09-17T01:04:38;12.70;76.50
70079;DHT22;57451;52.496;13.456;2022-09-17T01:07:13;12.60;76.80
70079;DHT22;57451;52.496;13.456;2022-09-17T01:09:46;12.70;77.00
70079;DHT22;57451;52.496;13.456;2022-09-17T01:12:30;12.60;77.00
70079;DHT22;57451;52.496;13.456;2022-09-17T01:15:08;12.60;76.80
70079;DHT22;57451;52.496;13.456;2022-09-17T01:17:41;12.70;76.90
70079;DHT22;57451;52.496;13.456;2022-09-17T01:29:34;12.70;76.80
70079;DHT22;57451;52.496;13.456;2022-09-17T01:32:07;12.70;76.50
70079;DHT22;57451;52.496;13.456;2022-09-17T01:34:40;12.70;76.40
70079;DHT22;57451;52.496;13.456;2022-09-17T01:37:12;12.80;76.50
70079;DHT22;57451;52.496;13.456;2022-09-17T01:39:45;12.70;76.70
70079;DHT22;57451;52.496;13.456;2022-09-17T01:42:16;12.70;77.00
70079;DHT22;57451;52.496;13.456;2022-09-17T01:44:50;12.70;76.80
70079;DHT22;57451;52.496;13.456;2022-09-17T01:47:22;12.70;76.50
70079;DHT22;57451;52.496;13.456;2022-09-17T01:49:55;12.70;76.30
70079;DHT22;57451;52.496;13.456;2022-09-17T01:52:26;12.80;76.20
70079;DHT22;57451;52.496;13.456;2022-09-17T01:54:57;12.80;76.50
70079;DHT22;57451;52.496;13.456;2022-09-17T01:57:28;12.70;76.60
70079;DHT22;57451;52.496;13.456;2022-09-17T02:00:00;12.80;76.50
70079;DHT22;57451;52.496;13.456;2022-09-17T02:02:31;12.70;76.70
70079;DHT22;57451;52.496;13.456;2022-09-17T02:05:03;12.70;77.00
70079;DHT22;57451;52.496;13.456;2022-09-17T02:07:31;12.70;77.10
70079;DHT22;57451;52.496;13.456;2022-09-17T02:10:02;12.80;76.50
70079;DHT22;57451;52.496;13.456;2022-09-17T02:12:33;12.70;76.70
70079;DHT22;57451;52.496;13.456;2022-09-17T02:15:04;12.80;76.90
70079;DHT22;57451;52.496;13.456;2022-09-17T02:17:38;12.80;77.00
70079;DHT22;57451;52.496;13.456;2022-09-17T02:20:05;12.70;77.60
70079;DHT22;57451;52.496;13.456;2022-09-17T02:22:38;12.70;77.40
70079;DHT22;57451;52.496;13.456;2022-09-17T02:25:11;12.80;77.50
70079;DHT22;57451;52.496;13.456;2022-09-17T02:27:48;12.80;77.30
70079;DHT22;57451;52.496;13.456;2022-09-17T02:30:16;12.70;77.60
70079;DHT22;57451;52.496;13.456;2022-09-17T02:32:44;12.70;77.50
70079;DHT22;57451;52.496;13.456;2022-09-17T02:35:11;12.80;77.60
70079;DHT22;57451;52.496;13.456;2022-09-17T02:37:40;12.70;77.40
70079;DHT22;57451;52.496;13.456;2022-09-17T02:40:08;12.80;77.10
70079;DHT22;57451;52.496;13.456;2022-09-17T02:42:47;12.80;77.00
70079;DHT22;57451;52.496;13.456;2022-09-17T02:45:24;12.80;77.00
70079;DHT22;57451;52.496;13.456;2022-09-17T02:48:04;12.80;77.60
70079;DHT22;57451;52.496;13.456;2022-09-17T02:50:45;12.90;77.30
70079;DHT22;57451;52.496;13.456;2022-09-17T02:53:27;12.90;77.40
70079;DHT22;57451;52.496;13.456;2022-09-17T02:56:02;12.90;77.10
70079;DHT22;57451;52.496;13.456;2022-09-17T02:58:38;12.90;77.20
70079;DHT22;57451;52.496;13.456;2022-09-17T03:01:12;12.90;77.00
70079;DHT22;57451;52.496;13.456;2022-09-17T03:03:43;12.90;77.40
70079;DHT22;57451;52.496;13.456;2022-09-17T03:06:10;12.80;77.70
70079;DHT22;57451;52.496;13.456;2022-09-17T03:08:39;12.90;77.60
70079;DHT22;57451;52.496;13.456;2022-09-17T03:11:06;12.80;77.40
70079;DHT22;57451;52.496;13.456;2022-09-17T03:13:34;12.90;78.00
70079;DHT22;57451;52.496;13.456;2022-09-17T03:16:01;12.80;77.80
70079;DHT22;57451;52.496;13.456;2022-09-17T03:18:27;12.90;77.70
70079;DHT22;57451;52.496;13.456;2022-09-17T03:20:55;12.90;77.50
70079;DHT22;57451;52.496;13.456;2022-09-17T03:23:21;12.90;77.30
70079;DHT22;57451;52.496;13.456;2022-09-17T03:25:47;12.90;77.30
70079;DHT22;57451;52.496;13.456;2022-09-17T03:28:17;12.90;77.30
70079;DHT22;57451;52.496;13.456;2022-09-17T03:30:43;12.80;77.70
70079;DHT22;57451;52.496;13.456;2022-09-17T03:33:09;12.90;77.60
70079;DHT22;57451;52.496;13.456;2022-09-17T03:35:36;12.80;77.70
70079;DHT22;57451;52.496;13.456;2022-09-17T03:38:03;12.90;77.50
70079;DHT22;57451;52.496;13.456;2022-09-17T03:40:30;12.90;77.70
70079;DHT22;57451;52.496;13.456;2022-09-17T03:42:56;12.90;77.60
70079;DHT22;57451;52.496;13.456;2022-09-17T03:45:22;12.90;77.80
70079;DHT22;57451;52.496;13.456;2022-09-17T03:47:48;12.90;77.30
70079;DHT22;57451;52.496;13.456;2022-09-17T03:50:14;12.90;77.20
70079;DHT22;57451;52.496;13.456;2022-09-17T03:52:42;12.90;77.30
70079;DHT22;57451;52.496;13.456;2022-09-17T03:55:10;12.90;77.40
70079;DHT22;57451;52.496;13.456;2022-09-17T03:57:36;12.90;77.30
70079;DHT22;57451;52.496;13.456;2022-09-17T04:00:03;12.90;77.50
70079;DHT22;57451;52.496;13.456;2022-09-17T04:02:37;12.90;77.50
70079;DHT22;57451;52.496;13.456;2022-09-17T04:05:04;12.90;77.20
70079;DHT22;57451;52.496;13.456;2022-09-17T04:07:31;12.90;77.00
70079;DHT22;57451;52.496;13.456;2022-09-17T04:09:57;12.90;77.10
70079;DHT22;57451;52.496;13.456;2022-09-17T04:12:24;12.90;77.30
70079;DHT22;57451;52.496;13.456;2022-09-17T04:14:51;12.90;77.30
70079;DHT22;57451;52.496;13.456;2022-09-17T04:17:17;12.90;77.30
70079;DHT22;57451;52.496;13.456;2022-09-17T04:19:43;12.90;76.90
70079;DHT22;57451;52.496;13.456;2022-09-17T04:22:09;13.00;76.50
70079;DHT22;57451;52.496;13.456;2022-09-17T04:24:36;13.00;76.70
70079;DHT22;57451;52.496;13.456;2022-09-17T04:27:02;13.00;76.50
70079;DHT22;57451;52.496;13.456;2022-09-17T04:29:29;13.00;76.30
70079;DHT22;57451;52.496;13.456;2022-09-17T04:31:55;13.00;76.40
70079;DHT22;57451;52.496;13.456;2022-09-17T04:34:22;13.00;76.20
70079;DHT22;57451;52.496;13.456;2022-09-17T04:36:48;13.00;76.50
70079;DHT22;57451;52.496;13.456;2022-09-17T04:39:14;13.10;76.40
70079;DHT22;57451;52.496;13.456;2022-09-17T04:41:40;13.10;76.40
70079;DHT22;57451;52.496;13.456;2022-09-17T04:44:06;13.10;76.00
70079;DHT22;57451;52.496;13.456;2022-09-17T04:46:34;13.10;76.10
70079;DHT22;57451;52.496;13.456;2022-09-17T04:49:00;13.10;76.00
70079;DHT22;57451;52.496;13.456;2022-09-17T04:51:26;13.10;76.10
70079;DHT22;57451;52.496;13.456;2022-09-17T04:53:52;13.10;76.30
70079;DHT22;57451;52.496;13.456;2022-09-17T04:56:18;13.00;76.30
70079;DHT22;57451;52.496;13.456;2022-09-17T04:58:45;13.00;76.30
70079;DHT22;57451;52.496;13.456;2022-09-17T05:01:11;13.00;76.10
70079;DHT22;57451;52.496;13.456;2022-09-17T05:03:40;13.00;76.00
70079;DHT22;57451;52.496;13.456;2022-09-17T05:06:06;13.00;76.50
70079;DHT22;57451;52.496;13.456;2022-09-17T05:08:32;13.10;76.20
70079;DHT22;57451;52.496;13.456;2022-09-17T05:10:58;13.10;76.10
70079;DHT22;57451;52.496;13.456;2022-09-17T05:13:24;13.10;75.80
70079;DHT22;57451;52.496;13.456;2022-09-17T05:15:50;13.10;76.00
70079;DHT22;57451;52.496;13.456;2022-09-17T05:18:19;13.10;75.70
70079;DHT22;57451;52.496;13.456;2022-09-17T05:20:46;13.10;76.00
70079;DHT22;57451;52.496;13.456;2022-09-17T05:23:13;13.10;75.80
70079;DHT22;57451;52.496;13.456;2022-09-17T05:25:39;13.10;75.50
70079;DHT22;57451;52.496;13.456;2022-09-17T05:28:05;13.20;75.30
70079;DHT22;57451;52.496;13.456;2022-09-17T05:30:32;13.20;75.20
70079;DHT22;57451;52.496;13.456;2022-09-17T05:32:59;13.20;75.80
70079;DHT22;57451;52.496;13.456;2022-09-17T05:35:25;13.20;75.60
70079;DHT22;57451;52.496;13.456;2022-09-17T05:37:57;13.20;75.60
70079;DHT22;57451;52.496;13.456;2022-09-17T05:40:23;13.20;75.80
70079;DHT22;57451;52.496;13.456;2022-09-17T05:42:49;13.20;75.30
70079;DHT22;57451;52.496;13.456;2022-09-17T05:45:15;13.20;75.80
70079;DHT22;57451;52.496;13.456;2022-09-17T05:47:41;13.20;75.80
70079;DHT22;57451;52.496;13.456;2022-09-17T05:50:08;13.20;75.90
70079;DHT22;57451;52.496;13.456;2022-09-17T05:52:34;13.20;75.90
70079;DHT22;57451;52.496;13.456;2022-09-17T05:55:02;13.20;76.20
70079;DHT22;57451;52.496;13.456;2022-09-17T05:57:28;13.20;76.00
70079;DHT22;57451;52.496;13.456;2022-09-17T05:59:55;13.20;75.70
70079;DHT22;57451;52.496;13.456;2022-09-17T06:02:21;13.30;75.90
70079;DHT22;57451;52.496;13.456;2022-09-17T06:04:47;13.30;75.90
70079;DHT22;57451;52.496;13.456;2022-09-17T06:07:13;13.20;76.10
70079;DHT22;57451;52.496;13.456;2022-09-17T06:09:39;13.30;76.10
70079;DHT22;57451;52.496;13.456;2022-09-17T06:12:07;13.30;76.20
70079;DHT22;57451;52.496;13.456;2022-09-17T06:14:33;13.30;76.30
70079;DHT22;57451;52.496;13.456;2022-09-17T06:16:59;13.30;76.70
70079;DHT22;57451;52.496;13.456;2022-09-17T06:19:26;13.20;77.00
70079;DHT22;57451;52.496;13.456;2022-09-17T06:21:54;13.20;77.40
70079;DHT22;57451;52.496;13.456;2022-09-17T06:24:20;13.20;77.40
70079;DHT22;57451;52.496;13.456;2022-09-17T06:26:46;13.20;77.40
70079;DHT22;57451;52.496;13.456;2022-09-17T06:29:14;13.30;77.40
70079;DHT22;57451;52.496;13.456;2022-09-17T06:31:40;13.30;77.10
70079;DHT22;57451;52.496;13.456;2022-09-17T06:34:09;13.30;76.90
70079;DHT22;57451;52.496;13.456;2022-09-17T06:36:35;13.30;76.60
70079;DHT22;57451;52.496;13.456;2022-09-17T06:39:01;13.30;76.80
70079;DHT22;57451;52.496;13.456;2022-09-17T06:41:27;13.30;76.50
70079;DHT22;57451;52.496;13.456;2022-09-17T06:43:54;13.30;76.50
70079;DHT22;57451;52.496;13.456;2022-09-17T06:46:22;13.30;76.30
70079;DHT22;57451;52.496;13.456;2022-09-17T06:48:48;13.30;76.40
70079;DHT22;57451;52.496;13.456;2022-09-17T06:51:14;13.30;76.20
70079;DHT22;57451;52.496;13.456;2022-09-17T06:53:41;13.30;76.20
70079;DHT22;57451;52.496;13.456;2022-09-17T06:56:08;13.30;76.30
70079;DHT22;57451;52.496;13.456;2022-09-17T06:58:36;13.40;76.30
70079;DHT22;57451;52.496;13.456;2022-09-17T07:01:03;13.40;76.20
70079;DHT22;57451;52.496;13.456;2022-09-17T07:03:31;13.40;75.60
70079;DHT22;57451;52.496;13.456;2022-09-17T07:05:58;13.40;75.60
70079;DHT22;57451;52.496;13.456;2022-09-17T07:08:24;13.40;75.10
70079;DHT22;57451;52.496;13.456;2022-09-17T07:10:54;13.40;74.60
70079;DHT22;57451;52.496;13.456;2022-09-17T07:13:21;13.30;74.60
70079;DHT22;57451;52.496;13.456;2022-09-17T07:15:52;13.40;74.30
70079;DHT22;57451;52.496;13.456;2022-09-17T07:18:19;13.40;74.10
70079;DHT22;57451;52.496;13.456;2022-09-17T07:20:52;13.40;74.10
70079;DHT22;57451;52.496;13.456;2022-09-17T07:23:21;13.50;74.00
70079;DHT22;57451;52.496;13.456;2022-09-17T07:25:50;13.40;73.70
70079;DHT22;57451;52.496;13.456;2022-09-17T07:28:17;13.40;73.50
70079;DHT22;57451;52.496;13.456;2022-09-17T07:30:43;13.50;73.50
70079;DHT22;57451;52.496;13.456;2022-09-17T07:33:09;13.50;73.70
70079;DHT22;57451;52.496;13.456;2022-09-17T07:35:35;13.50;73.50
70079;DHT22;57451;52.496;13.456;2022-09-17T07:38:02;13.50;73.90
70079;DHT22;57451;52.496;13.456;2022-09-17T07:40:29;13.50;73.50
70079;DHT22;57451;52.496;13.456;2022-09-17T07:42:56;13.50;73.50
70079;DHT22;57451;52.496;13.456;2022-09-17T07:45:23;13.50;73.00
70079;DHT22;57451;52.496;13.456;2022-09-17T07:47:49;13.50;73.10
70079;DHT22;57451;52.496;13.456;2022-09-17T07:50:16;13.50;73.00
70079;DHT22;57451;52.496;13.456;2022-09-17T07:52:45;13.60;72.70
70079;DHT22;57451;52.496;13.456;2022-09-17T07:55:12;13.60;72.80
70079;DHT22;57451;52.496;13.456;2022-09-17T07:57:38;13.60;72.30
70079;DHT22;57451;52.496;13.456;2022-09-17T08:00:06;13.70;72.40
70079;DHT22;57451;52.496;13.456;2022-09-17T08:02:37;13.70;72.50
70079;DHT22;57451;52.496;13.456;2022-09-17T08:05:04;13.70;72.00
70079;DHT22;57451;52.496;13.456;2022-09-17T08:07:30;13.70;71.80
70079;DHT22;57451;52.496;13.456;2022-09-17T08:09:56;13.70;71.70
70079;DHT22;57451;52.496;13.456;2022-09-17T08:12:24;13.70;71.50
70079;DHT22;57451;52.496;13.456;2022-09-17T08:14:50;13.80;71.70
70079;DHT22;57451;52.496;13.456;2022-09-17T08:17:16;13.80;71.40
70079;DHT22;57451;52.496;13.456;2022-09-17T08:19:42;13.90;70.90
70079;DHT22;57451;52.496;13.456;2022-09-17T08:22:08;13.90;70.90
70079;DHT22;57451;52.496;13.456;2022-09-17T08:24:34;13.90;70.50
70079;DHT22;57451;52.496;13.456;2022-09-17T08:27:01;13.90;70.20
70079;DHT22;57451;52.496;13.456;2022-09-17T08:29:28;13.90;70.60
70079;DHT22;57451;52.496;13.456;2022-09-17T08:31:54;14.00;70.80
70079;DHT22;57451;52.496;13.456;2022-09-17T08:34:20;14.00;70.20
70079;DHT22;57451;52.496;13.456;2022-09-17T08:36:46;14.10;70.00
70079;DHT22;57451;52.496;13.456;2022-09-17T08:39:13;14.10;69.70
70079;DHT22;57451;52.496;13.456;2022-09-17T08:41:48;14.20;69.00
70079;DHT22;57451;52.496;13.456;2022-09-17T08:44:22;14.30;69.20
70079;DHT22;57451;52.496;13.456;2022-09-17T08:46:53;14.40;68.70
70079;DHT22;57451;52.496;13.456;2022-09-17T08:49:33;14.50;68.60
70079;DHT22;57451;52.496;13.456;2022-09-17T08:52:13;14.60;67.90
70079;DHT22;57451;52.496;13.456;2022-09-17T08:54:46;14.70;67.50
70079;DHT22;57451;52.496;13.456;2022-09-17T08:57:20;14.80;66.20
70079;DHT22;57451;52.496;13.456;2022-09-17T08:59:54;14.80;65.00
70079;DHT22;57451;52.496;13.456;2022-09-17T09:02:38;14.80;64.80
70079;DHT22;57451;52.496;13.456;2022-09-17T09:05:10;14.90;65.40
70079;DHT22;57451;52.496;13.456;2022-09-17T09:07:41;15.00;64.50
70079;DHT22;57451;52.496;13.456;2022-09-17T09:10:14;15.00;64.00
70079;DHT22;57451;52.496;13.456;2022-09-17T09:12:42;15.00;63.90
70079;DHT22;57451;52.496;13.456;2022-09-17T09:15:20;15.10;64.10
70079;DHT22;57451;52.496;13.456;2022-09-17T09:17:50;15.10;63.90
70079;DHT22;57451;52.496;13.456;2022-09-17T09:20:22;15.10;63.80
70079;DHT22;57451;52.496;13.456;2022-09-17T09:22:51;15.20;63.60
70079;DHT22;57451;52.496;13.456;2022-09-17T09:25:20;15.40;63.60
70079;DHT22;57451;52.496;13.456;2022-09-17T09:28:10;15.70;62.90
70079;DHT22;57451;52.496;13.456;2022-09-17T09:30:51;15.90;61.60
70079;DHT22;57451;52.496;13.456;2022-09-17T09:33:25;16.10;60.70
70079;DHT22;57451;52.496;13.456;2022-09-17T09:35:52;16.30;60.40
70079;DHT22;57451;52.496;13.456;2022-09-17T09:38:24;16.60;59.40
70079;DHT22;57451;52.496;13.456;2022-09-17T09:40:57;16.80;58.10
70079;DHT22;57451;52.496;13.456;2022-09-17T09:43:33;16.90;57.80
70079;DHT22;57451;52.496;13.456;2022-09-17T09:46:19;17.00;58.20
70079;DHT22;57451;52.496;13.456;2022-09-17T09:48:58;17.00;57.00
70079;DHT22;57451;52.496;13.456;2022-09-17T09:51:32;17.10;56.20
70079;DHT22;57451;52.496;13.456;2022-09-17T09:54:12;17.00;56.90
70079;DHT22;57451;52.496;13.456;2022-09-17T09:56:59;17.10;57.70
70079;DHT22;57451;52.496;13.456;2022-09-17T09:59:28;17.00;57.70
70079;DHT22;57451;52.496;13.456;2022-09-17T10:01:54;16.90;58.00
70079;DHT22;57451;52.496;13.456;2022-09-17T10:04:23;16.80;58.60
70079;DHT22;57451;52.496;13.456;2022-09-17T10:06:51;16.80;59.10
70079;DHT22;57451;52.496;13.456;2022-09-17T10:09:19;16.70;59.70
70079;DHT22;57451;52.496;13.456;2022-09-17T10:12:14;16.70;59.60
70079;DHT22;57451;52.496;13.456;2022-09-17T10:14:42;16.60;59.80
70079;DHT22;57451;52.496;13.456;2022-09-17T10:17:12;16.50;60.20
70079;DHT22;57451;52.496;13.456;2022-09-17T10:19:41;16.50;60.80
70079;DHT22;57451;52.496;13.456;2022-09-17T10:22:21;16.50;60.10
70079;DHT22;57451;52.496;13.456;2022-09-17T10:24:50;16.70;61.20
70079;DHT22;57451;52.496;13.456;2022-09-17T10:27:18;16.90;60.90
70079;DHT22;57451;52.496;13.456;2022-09-17T10:29:47;17.10;59.40
70079;DHT22;57451;52.496;13.456;2022-09-17T10:32:15;17.40;58.40
70079;DHT22;57451;52.496;13.456;2022-09-17T10:34:59;17.50;55.30
70079;DHT22;57451;52.496;13.456;2022-09-17T10:37:35;17.60;53.90
70079;DHT22;57451;52.496;13.456;2022-09-17T10:40:24;17.70;54.10
70079;DHT22;57451;52.496;13.456;2022-09-17T10:43:16;17.90;54.50
70079;DHT22;57451;52.496;13.456;2022-09-17T10:45:44;17.90;53.20
70079;DHT22;57451;52.496;13.456;2022-09-17T10:48:18;17.60;55.10
70079;DHT22;57451;52.496;13.456;2022-09-17T10:50:49;17.60;56.80
70079;DHT22;57451;52.496;13.456;2022-09-17T10:53:16;17.50;55.80
70079;DHT22;57451;52.496;13.456;2022-09-17T10:55:45;17.30;57.10
70079;DHT22;57451;52.496;13.456;2022-09-17T10:58:23;17.10;56.00
70079;DHT22;57451;52.496;13.456;2022-09-17T11:01:04;17.10;56.20
70079;DHT22;57451;52.496;13.456;2022-09-17T11:03:46;17.00;56.70
70079;DHT22;57451;52.496;13.456;2022-09-17T11:06:31;17.00;57.20
70079;DHT22;57451;52.496;13.456;2022-09-17T11:09:13;17.00;58.60
70079;DHT22;57451;52.496;13.456;2022-09-17T11:11:52;17.00;58.10
70079;DHT22;57451;52.496;13.456;2022-09-17T11:14:40;17.00;57.70
70079;DHT22;57451;52.496;13.456;2022-09-17T11:17:17;17.00;57.40
70079;DHT22;57451;52.496;13.456;2022-09-17T11:19:51;17.10;58.00
70079;DHT22;57451;52.496;13.456;2022-09-17T11:22:27;17.40;58.00
70079;DHT22;57451;52.496;13.456;2022-09-17T11:25:15;17.70;57.20
70079;DHT22;57451;52.496;13.456;2022-09-17T11:28:01;18.00;55.40
70079;DHT22;57451;52.496;13.456;2022-09-17T11:30:35;18.20;54.20
70079;DHT22;57451;52.496;13.456;2022-09-17T11:33:19;18.50;54.50
70079;DHT22;57451;52.496;13.456;2022-09-17T11:35:54;18.60;53.40
70079;DHT22;57451;52.496;13.456;2022-09-17T11:38:29;18.90;53.30
70079;DHT22;57451;52.496;13.456;2022-09-17T11:41:03;19.10;52.30
70079;DHT22;57451;52.496;13.456;2022-09-17T11:43:32;19.10;50.20
70079;DHT22;57451;52.496;13.456;2022-09-17T11:46:02;19.20;51.60
70079;DHT22;57451;52.496;13.456;2022-09-17T11:48:36;19.10;49.30
70079;DHT22;57451;52.496;13.456;2022-09-17T11:51:11;19.00;51.00
70079;DHT22;57451;52.496;13.456;2022-09-17T11:53:45;19.00;51.40
70079;DHT22;57451;52.496;13.456;2022-09-17T11:56:16;19.20;49.00
70079;DHT22;57451;52.496;13.456;2022-09-17T11:58:48;19.30;50.00
70079;DHT22;57451;52.496;13.456;2022-09-17T12:01:23;19.50;49.70
70079;DHT22;57451;52.496;13.456;2022-09-17T12:03:54;19.70;48.60
70079;DHT22;57451;52.496;13.456;2022-09-17T12:09:14;19.70;49.30
70079;DHT22;57451;52.496;13.456;2022-09-17T12:11:46;19.70;47.30
70079;DHT22;57451;52.496;13.456;2022-09-17T12:14:20;19.90;48.10
70079;DHT22;57451;52.496;13.456;2022-09-17T12:16:49;20.20;46.70
70079;DHT22;57451;52.496;13.456;2022-09-17T12:19:22;20.20;45.00
70079;DHT22;57451;52.496;13.456;2022-09-17T12:21:53;20.10;45.10
70079;DHT22;57451;52.496;13.456;2022-09-17T12:24:23;20.20;46.20
70079;DHT22;57451;52.496;13.456;2022-09-17T12:26:58;20.10;45.40
70079;DHT22;57451;52.496;13.456;2022-09-17T12:32:41;19.60;45.80
70079;DHT22;57451;52.496;13.456;2022-09-17T12:35:19;19.40;47.20
70079;DHT22;57451;52.496;13.456;2022-09-17T12:37:53;19.40;48.00
70079;DHT22;57451;52.496;13.456;2022-09-17T12:40:30;19.30;47.70
70079;DHT22;57451;52.496;13.456;2022-09-17T12:43:12;19.30;48.30
70079;DHT22;57451;52.496;13.456;2022-09-17T12:45:51;19.30;48.80
70079;DHT22;57451;52.496;13.456;2022-09-17T12:48:50;19.60;48.80
70079;DHT22;57451;52.496;13.456;2022-09-17T12:51:36;19.90;48.90
70079;DHT22;57451;52.496;13.456;2022-09-17T12:54:16;20.30;46.60
70079;DHT22;57451;52.496;13.456;2022-09-17T12:56:55;20.70;46.20
70079;DHT22;57451;52.496;13.456;2022-09-17T12:59:27;21.10;45.40
70079;DHT22;57451;52.496;13.456;2022-09-17T13:01:58;21.50;45.70
70079;DHT22;57451;52.496;13.456;2022-09-17T13:07:39;22.00;44.00
70079;DHT22;57451;52.496;13.456;2022-09-17T13:10:16;21.70;42.20
70079;DHT22;57451;52.496;13.456;2022-09-17T13:12:52;21.70;43.40
70079;DHT22;57451;52.496;13.456;2022-09-17T13:15:35;21.60;43.80
70079;DHT22;57451;52.496;13.456;2022-09-17T13:18:10;21.40;44.30
70079;DHT22;57451;52.496;13.456;2022-09-17T13:20:42;21.30;41.20
70079;DHT22;57451;52.496;13.456;2022-09-17T13:23:11;21.10;41.20
70079;DHT22;57451;52.496;13.456;2022-09-17T13:25:48;21.10;42.30
70079;DHT22;57451;52.496;13.456;2022-09-17T13:28:35;21.10;39.90
70079;DHT22;57451;52.496;13.456;2022-09-17T13:31:02;21.20;39.20
70079;DHT22;57451;52.496;13.456;2022-09-17T13:33:50;21.50;39.60
70079;DHT22;57451;52.496;13.456;2022-09-17T13:36:43;21.50;39.30
70079;DHT22;57451;52.496;13.456;2022-09-17T13:39:32;21.90;41.10
70079;DHT22;57451;52.496;13.456;2022-09-17T13:42:02;22.30;39.80
70079;DHT22;57451;52.496;13.456;2022-09-17T13:44:33;22.50;40.50
70079;DHT22;57451;52.496;13.456;2022-09-17T13:47:09;22.70;39.30
70079;DHT22;57451;52.496;13.456;2022-09-17T13:49:43;22.80;38.80
70079;DHT22;57451;52.496;13.456;2022-09-17T13:52:11;23.10;40.00
70079;DHT22;57451;52.496;13.456;2022-09-17T13:54:37;23.50;38.30
70079;DHT22;57451;52.496;13.456;2022-09-17T13:57:10;23.60;36.30
70079;DHT22;57451;52.496;13.456;2022-09-17T13:59:51;23.40;35.90
70079;DHT22;57451;52.496;13.456;2022-09-17T14:02:31;23.20;37.40
70079;DHT22;57451;52.496;13.456;2022-09-17T14:05:33;23.40;37.20
70079;DHT22;57451;52.496;13.456;2022-09-17T14:08:23;23.60;37.60
70079;DHT22;57451;52.496;13.456;2022-09-17T14:10:54;23.60;37.90
70079;DHT22;57451;52.496;13.456;2022-09-17T14:13:27;23.70;37.30
70079;DHT22;57451;52.496;13.456;2022-09-17T14:16:30;23.70;36.60
70079;DHT22;57451;52.496;13.456;2022-09-17T14:19:02;23.30;36.00
70079;DHT22;57451;52.496;13.456;2022-09-17T14:21:31;22.90;38.10
70079;DHT22;57451;52.496;13.456;2022-09-17T14:24:00;22.90;38.00
70079;DHT22;57451;52.496;13.456;2022-09-17T14:30:00;22.40;38.70
70079;DHT22;57451;52.496;13.456;2022-09-17T14:32:32;22.20;38.20
70079;DHT22;57451;52.496;13.456;2022-09-17T14:35:03;22.10;37.50
70079;DHT22;57451;52.496;13.456;2022-09-17T14:37:38;21.70;37.70
70079;DHT22;57451;52.496;13.456;2022-09-17T14:40:08;21.20;39.20
70079;DHT22;57451;52.496;13.456;2022-09-17T14:42:36;20.80;39.20
70079;DHT22;57451;52.496;13.456;2022-09-17T14:45:06;20.10;41.40
70079;DHT22;57451;52.496;13.456;2022-09-17T14:47:38;19.90;42.00
70079;DHT22;57451;52.496;13.456;2022-09-17T14:50:22;19.60;42.90
70079;DHT22;57451;52.496;13.456;2022-09-17T14:52:49;19.30;44.00
70079;DHT22;57451;52.496;13.456;2022-09-17T14:55:18;19.00;44.70
70079;DHT22;57451;52.496;13.456;2022-09-17T14:57:47;18.90;44.70
70079;DHT22;57451;52.496;13.456;2022-09-17T15:00:17;18.80;45.20
70079;DHT22;57451;52.496;13.456;2022-09-17T15:02:49;18.80;45.50
70079;DHT22;57451;52.496;13.456;2022-09-17T15:05:20;18.60;45.10
70079;DHT22;57451;52.496;13.456;2022-09-17T15:07:47;18.30;45.80
70079;DHT22;57451;52.496;13.456;2022-09-17T15:10:15;18.20;45.50
70079;DHT22;57451;52.496;13.456;2022-09-17T15:12:43;17.90;45.10
70079;DHT22;57451;52.496;13.456;2022-09-17T15:15:16;17.70;44.30
70079;DHT22;57451;52.496;13.456;2022-09-17T15:17:44;17.30;45.50
70079;DHT22;57451;52.496;13.456;2022-09-17T15:20:15;17.20;45.60
70079;DHT22;57451;52.496;13.456;2022-09-17T15:22:44;17.20;45.90
70079;DHT22;57451;52.496;13.456;2022-09-17T15:25:15;17.10;46.20
70079;DHT22;57451;52.496;13.456;2022-09-17T15:27:45;16.80;46.60
70079;DHT22;57451;52.496;13.456;2022-09-17T15:30:14;16.80;46.40
70079;DHT22;57451;52.496;13.456;2022-09-17T15:32:47;16.80;47.20
70079;DHT22;57451;52.496;13.456;2022-09-17T15:35:20;16.80;47.80
70079;DHT22;57451;52.496;13.456;2022-09-17T15:37:48;16.80;47.80
70079;DHT22;57451;52.496;13.456;2022-09-17T15:40:22;16.80;47.00
70079;DHT22;57451;52.496;13.456;2022-09-17T15:42:51;16.70;48.10
70079;DHT22;57451;52.496;13.456;2022-09-17T15:45:18;16.70;47.20
70079;DHT22;57451;52.496;13.456;2022-09-17T15:47:55;16.50;47.60
70079;DHT22;57451;52.496;13.456;2022-09-17T15:50:24;16.50;48.30
70079;DHT22;57451;52.496;13.456;2022-09-17T15:53:09;16.30;48.10
70079;DHT22;57451;52.496;13.456;2022-09-17T15:55:37;16.20;48.50
70079;DHT22;57451;52.496;13.456;2022-09-17T15:58:21;16.10;48.90
70079;DHT22;57451;52.496;13.456;2022-09-17T16:04:16;15.90;48.90